Time;durP1;ratioP1;P1;durP2;ratioP2;P2;SDS_P1;SDS_P2;PMS_P1;PMS_P2;Temp;Humidity;BMP_temperature;BMP_pressure;BME280_temperature;BME280_humidity;BME280_pressure;Samples;Min_cycle;Max_cycle;Signal;HPM_P1;HPM_P2
2022/06/19 00:00:00;;;;;;;2.20;1.90;;;;;;;20.68;100.00;98710.38;4414514;32;20459;-70
2022/06/19 00:02:27;;;;;;;2.33;2.22;;;;;;;20.68;100.00;98713.09;4402486;32;20062;-68
2022/06/19 00:04:55;;;;;;;3.10;2.22;;;;;;;20.62;100.00;98708.09;4416115;32;20370;-70
2022/06/19 00:07:22;;;;;;;2.92;2.12;;;;;;;20.67;100.00;98703.28;4416238;32;20100;-69
2022/06/19 00:09:48;;;;;;;3.83;2.33;;;;;;;20.68;100.00;98707.63;4414814;32;20090;-70
2022/06/19 00:12:15;;;;;;;3.15;2.45;;;;;;;20.41;100.00;98664.22;4413627;32;20038;-69
2022/06/19 00:14:42;;;;;;;4.65;2.17;;;;;;;20.63;100.00;98699.56;4416203;32;20423;-69
2022/06/19 00:17:09;;;;;;;4.00;2.60;;;;;;;20.66;100.00;98698.94;4414830;32;20030;-69
2022/06/19 00:19:36;;;;;;;5.65;2.12;;;;;;;20.29;100.00;98667.59;4416402;32;20046;-70
2022/06/19 00:22:03;;;;;;;12.07;2.45;;;;;;;20.56;100.00;98703.91;4413827;32;20448;-69
2022/06/19 00:24:29;;;;;;;4.05;2.40;;;;;;;20.53;100.00;98702.63;4416257;32;20097;-69
2022/06/19 00:26:56;;;;;;;3.47;2.53;;;;;;;20.46;100.00;98694.12;4415983;32;20366;-69
2022/06/19 00:29:22;;;;;;;4.00;2.35;;;;;;;20.52;100.00;98709.25;4415617;32;20330;-69
2022/06/19 00:31:48;;;;;;;3.45;2.20;;;;;;;20.52;100.00;98703.78;4413409;32;20092;-70
2022/06/19 00:34:14;;;;;;;6.97;1.92;;;;;;;20.51;100.00;98699.41;4414352;32;20069;-70
2022/06/19 00:36:40;;;;;;;2.60;2.40;;;;;;;20.16;100.00;98669.38;4414090;32;20122;-69
2022/06/19 00:39:06;;;;;;;3.78;2.03;;;;;;;20.39;100.00;98691.06;4416320;32;20047;-69
2022/06/19 00:41:39;;;;;;;2.87;2.20;;;;;;;20.45;100.00;98708.91;4414050;32;20481;-69
2022/06/19 00:44:10;;;;;;;2.80;2.33;;;;;;;20.20;100.00;98675.00;4414639;32;20058;-69
2022/06/19 00:46:43;;;;;;;4.30;2.10;;;;;;;20.40;100.00;98689.94;4415668;32;20064;-69
2022/06/19 00:49:12;;;;;;;4.25;2.30;;;;;;;20.40;100.00;98706.34;4415690;32;20521;-69
2022/06/19 00:51:38;;;;;;;2.70;2.37;;;;;;;20.40;100.00;98706.34;4413761;32;20100;-70
2022/06/19 00:54:06;;;;;;;4.80;2.03;;;;;;;20.36;100.00;98688.97;4415817;32;20862;-70
2022/06/19 00:56:32;;;;;;;3.50;2.03;;;;;;;20.39;100.00;98689.16;4415577;32;20046;-69
2022/06/19 00:58:58;;;;;;;11.02;2.15;;;;;;;20.22;100.00;98673.56;4413495;32;20108;-69
2022/06/19 01:01:27;;;;;;;3.50;2.00;;;;;;;20.44;100.00;98707.31;4413579;32;20034;-70
2022/06/19 01:04:05;;;;;;;3.05;2.00;;;;;;;20.15;100.00;98673.22;4416116;32;20047;-69
2022/06/19 01:06:31;;;;;;;2.78;2.58;;;;;;;20.50;100.00;98701.34;4415722;32;20058;-68
2022/06/19 01:08:58;;;;;;;2.10;2.00;;;;;;;20.44;100.00;98702.66;4416017;32;20443;-69
2022/06/19 01:11:29;;;;;;;3.03;2.00;;;;;;;20.54;100.00;98706.97;4415670;32;20101;-71
2022/06/19 01:13:55;;;;;;;4.95;1.95;;;;;;;20.35;100.00;98714.72;4418406;32;20139;-69
2022/06/19 01:16:21;;;;;;;6.12;2.50;;;;;;;20.50;100.00;98712.28;4417635;32;20073;-69
2022/06/19 01:18:47;;;;;;;4.93;1.83;;;;;;;20.45;100.00;98714.38;4419052;32;20034;-69
2022/06/19 01:21:22;;;;;;;7.18;2.50;;;;;;;20.42;100.00;98712.28;4418645;32;20113;-69
2022/06/19 01:23:54;;;;;;;5.57;2.47;;;;;;;20.40;100.00;98717.28;4417835;32;20154;-69
2022/06/19 01:26:21;;;;;;;;;;;;;;;20.17;100.00;98687.38;4418583;32;20064;-69
2022/06/19 01:28:56;;;;;;;7.45;1.95;;;;;;;20.40;100.00;98717.28;4417958;32;19975;-69
2022/06/19 01:31:35;;;;;;;4.05;2.65;;;;;;;20.44;100.00;98723.72;4417281;32;20043;-69
2022/06/19 01:34:26;;;;;;;6.50;2.58;;;;;;;20.15;100.00;98700.56;4418671;32;20061;-69
2022/06/19 01:37:02;;;;;;;2.65;2.20;;;;;;;20.12;100.00;98702.00;4403760;32;20039;-69
2022/06/19 01:39:34;;;;;;;4.85;2.45;;;;;;;20.28;100.00;98732.41;4407677;32;20110;-69
2022/06/19 01:42:02;;;;;;;2.45;2.00;;;;;;;20.29;100.00;98734.00;4410483;32;20083;-69
2022/06/19 01:44:30;;;;;;;3.90;2.12;;;;;;;20.25;100.00;98733.06;4417825;32;20391;-69
2022/06/19 01:46:56;;;;;;;4.45;2.10;;;;;;;20.18;100.00;98727.25;4417350;32;20075;-69
2022/06/19 01:49:23;;;;;;;5.95;2.33;;;;;;;20.14;100.00;98727.09;4416714;32;20094;-70
2022/06/19 01:51:51;;;;;;;9.98;3.08;;;;;;;20.06;100.00;98727.87;4418132;32;20122;-69
2022/06/19 01:54:45;;;;;;;2.47;2.28;;;;;;;19.84;100.00;98687.03;4418017;32;20423;-69
2022/06/19 01:57:13;;;;;;;5.35;2.45;;;;;;;20.02;100.00;98720.66;4414754;32;20159;-69
2022/06/19 01:59:42;;;;;;;3.85;2.28;;;;;;;20.03;100.00;98731.25;4418042;32;20506;-68
2022/06/19 02:02:09;;;;;;;4.65;2.25;;;;;;;19.98;100.00;98727.91;4416217;32;20103;-68
2022/06/19 02:04:36;;;;;;;9.93;2.35;;;;;;;19.91;100.00;98726.44;4416718;32;20065;-69
2022/06/19 02:07:07;;;;;;;2.33;2.17;;;;;;;19.86;100.00;98726.56;4416566;32;20054;-68
2022/06/19 02:09:34;;;;;;;2.95;2.40;;;;;;;19.71;100.00;98713.34;4417794;32;20038;-68
2022/06/19 02:12:02;;;;;;;8.70;2.62;;;;;;;19.81;100.00;98718.53;4418114;32;20046;-70
2022/06/19 02:14:30;;;;;;;3.53;2.55;;;;;;;19.46;100.00;98673.91;4417163;32;20468;-68
2022/06/19 02:16:56;;;;;;;6.78;2.70;;;;;;;19.62;100.00;98709.78;4416028;32;20371;-69
2022/06/19 02:19:22;;;;;;;4.68;2.65;;;;;;;19.71;100.00;98713.34;4417900;32;20062;-69
2022/06/19 02:21:55;;;;;;;5.87;2.75;;;;;;;19.65;100.00;98709.16;4417449;32;20096;-69
2022/06/19 02:24:24;;;;;;;10.98;2.62;;;;;;;19.33;100.00;98660.06;4417695;32;20043;-69
2022/06/19 02:26:51;;;;;;;8.32;2.58;;;;;;;19.51;100.00;98699.13;4414207;32;20059;-68
2022/06/19 02:29:19;;;;;;;6.18;3.97;;;;;;;19.49;100.00;98690.47;4417381;32;20050;-68
2022/06/19 02:31:49;;;;;;;7.12;2.22;;;;;;;19.50;100.00;98697.53;4417767;32;20038;-68
2022/06/19 02:34:27;;;;;;;3.10;2.35;;;;;;;19.23;100.00;98655.72;4417807;32;20038;-68
2022/06/19 02:36:58;;;;;;;7.80;2.50;;;;;;;19.40;100.00;98695.09;4414547;32;20065;-69
2022/06/19 02:39:53;;;;;;;7.05;2.47;;;;;;;19.40;100.00;98703.28;4423509;32;20081;-69
2022/06/19 02:42:26;;;;;;;6.72;2.42;;;;;;;19.37;100.00;98679.34;4414535;32;20175;-69
2022/06/19 02:44:55;;;;;;;3.08;2.60;;;;;;;19.37;100.00;98687.53;4417677;32;20054;-68
2022/06/19 02:47:22;;;;;;;2.42;2.22;;;;;;;19.05;100.00;98643.09;4417385;32;20111;-68
2022/06/19 02:49:48;;;;;;;5.05;2.25;;;;;;;19.28;100.00;98686.72;4417264;32;20074;-68
2022/06/19 02:52:14;;;;;;;3.65;2.60;;;;;;;19.32;100.00;98679.50;4414896;32;20057;-69
2022/06/19 02:54:40;;;;;;;3.78;2.37;;;;;;;19.34;100.00;98677.28;4416309;32;20046;-69
2022/06/19 02:57:07;;;;;;;4.87;2.65;;;;;;;19.12;100.00;98642.69;4417312;32;20061;-68
2022/06/19 02:59:33;;;;;;;11.40;2.62;;;;;;;19.34;100.00;98678.06;4417142;32;20034;-68
2022/06/19 03:01:59;;;;;;;8.57;2.75;;;;;;;19.03;100.00;98635.28;4417210;32;20083;-68
2022/06/19 03:04:38;;;;;;;4.90;2.20;;;;;;;19.30;100.00;98670.81;4415260;32;20054;-69
2022/06/19 03:07:04;;;;;;;6.10;2.58;;;;;;;19.05;100.00;98626.75;4416675;32;20145;-68
2022/06/19 03:09:30;;;;;;;2.75;2.53;;;;;;;18.94;100.00;98630.88;4417288;32;20038;-69
2022/06/19 03:11:56;;;;;;;2.40;2.20;;;;;;;19.22;100.00;98665.00;4403871;32;20384;-68
2022/06/19 03:14:24;;;;;;;6.07;2.53;;;;;;;19.07;100.00;98635.44;4415154;32;20111;-70
2022/06/19 03:16:50;;;;;;;9.10;2.30;;;;;;;19.24;100.00;98656.50;4416584;32;20079;-69
2022/06/19 03:19:16;;;;;;;5.05;2.50;;;;;;;19.17;100.00;98635.13;4417333;32;20038;-69
2022/06/19 03:21:42;;;;;;;2.92;2.53;;;;;;;19.37;100.00;98655.59;4416999;32;20171;-68
2022/06/19 03:24:08;;;;;;;7.15;2.65;;;;;;;19.33;100.00;98654.59;4416859;32;20479;-69
2022/06/19 03:26:34;;;;;;;7.20;2.12;;;;;;;19.41;100.00;98661.22;4415092;32;20087;-69
2022/06/19 03:29:00;;;;;;;2.92;2.40;;;;;;;19.19;100.00;98637.56;4414996;32;20180;-68
2022/06/19 03:31:28;;;;;;;4.85;2.25;;;;;;;19.38;100.00;98646.25;4416839;32;20061;-70
2022/06/19 03:33:54;;;;;;;11.00;2.12;;;;;;;19.28;100.00;98619.28;4415939;32;20037;-70
2022/06/19 03:36:21;;;;;;;4.50;2.00;;;;;;;19.32;100.00;98619.44;4415302;32;20069;-69
2022/06/19 03:38:47;;;;;;;2.42;2.22;;;;;;;19.56;100.00;98647.13;4415788;32;20026;-69
2022/06/19 03:41:13;;;;;;;2.72;2.37;;;;;;;19.57;100.00;98646.00;4414276;32;20047;-69
2022/06/19 03:43:40;;;;;;;3.42;2.33;;;;;;;19.65;100.00;98646.34;4416801;32;20069;-69
2022/06/19 03:46:14;;;;;;;3.97;2.17;;;;;;;19.72;100.00;98646.66;4416540;32;20058;-68
2022/06/19 03:48:46;;;;;;;2.87;2.12;;;;;;;19.62;100.00;98644.25;4414554;32;20047;-70
2022/06/19 03:51:12;;;;;;;7.12;1.90;;;;;;;19.67;100.00;98630.44;4402712;32;20065;-68
2022/06/19 03:53:39;;;;;;;8.43;2.35;;;;;;;19.79;100.00;98638.84;4415895;32;20034;-69
2022/06/19 03:56:06;;;;;;;2.95;2.20;;;;;;;19.90;100.00;98631.94;4420716;32;20072;-70
2022/06/19 03:58:47;;;;;;;2.87;2.15;;;;;;;19.60;100.00;98604.41;4416249;32;20039;-71
2022/06/19 04:01:34;;;;;;;4.28;2.10;;;;;;;19.89;100.00;98643.16;4416215;32;20947;-71
2022/06/19 04:04:01;;;;;;;3.53;1.98;;;;;;;19.84;100.00;98646.88;4416401;32;20042;-70
2022/06/19 04:06:29;;;;;;;8.40;2.12;;;;;;;19.91;100.00;98630.81;4415031;32;20080;-73
2022/06/19 04:08:56;;;;;;;3.53;2.90;;;;;;;20.03;100.00;98653.94;4415952;32;20046;-70
2022/06/19 04:11:24;;;;;;;4.43;2.78;;;;;;;19.74;100.00;98608.91;4415761;32;20055;-69
2022/06/19 04:13:53;;;;;;;3.28;2.22;;;;;;;20.06;100.00;98639.66;4415451;32;20053;-69
2022/06/19 04:16:23;;;;;;;4.85;2.20;;;;;;;19.96;100.00;98630.66;4414390;32;20042;-69
2022/06/19 04:18:50;;;;;;;8.23;2.37;;;;;;;20.01;100.00;98634.31;4413591;32;20100;-69
2022/06/19 04:21:20;;;;;;;2.35;2.25;;;;;;;19.78;100.00;98593.50;4416359;32;20092;-70
2022/06/19 04:23:46;;;;;;;7.62;3.90;;;;;;;20.04;100.00;98629.03;4416197;32;20077;-69
2022/06/19 04:26:15;;;;;;;2.33;2.12;;;;;;;19.99;100.00;98626.44;4415801;32;20110;-70
2022/06/19 04:28:41;;;;;;;4.70;2.20;;;;;;;19.85;100.00;98585.66;4412724;32;20076;-70
2022/06/19 04:31:08;;;;;;;3.97;2.60;;;;;;;20.11;100.00;98617.62;4415722;32;20276;-70
2022/06/19 04:33:38;;;;;;;5.07;2.10;;;;;;;19.95;100.00;98577.09;4401953;32;20042;-70
2022/06/19 04:36:11;;;;;;;2.28;2.10;;;;;;;20.03;100.00;98571.97;4414827;32;20042;-69
2022/06/19 04:38:38;;;;;;;6.40;2.28;;;;;;;20.36;100.00;98615.16;4414025;32;20097;-71
2022/06/19 04:41:04;;;;;;;5.93;2.42;;;;;;;20.39;100.00;98611.78;4415045;32;20058;-70
2022/06/19 04:43:30;;;;;;;7.35;2.33;;;;;;;20.36;100.00;98606.94;4414572;32;20064;-70
2022/06/19 04:46:05;;;;;;;4.60;1.80;;;;;;;20.10;100.00;98566.81;4414997;32;20094;-70
2022/06/19 04:48:33;;;;;;;4.55;2.10;;;;;;;20.43;100.00;98615.47;4411683;32;20084;-69
2022/06/19 04:51:00;;;;;;;2.20;2.08;;;;;;;20.43;100.00;98618.22;4415047;32;20055;-71
2022/06/19 04:53:26;;;;;;;5.37;2.53;;;;;;;20.54;100.00;98614.00;4414851;32;20035;-70
2022/06/19 04:55:53;;;;;;;9.10;2.28;;;;;;;20.31;100.00;98573.22;4415056;32;20050;-70
2022/06/19 04:58:22;;;;;;;5.15;2.20;;;;;;;20.71;100.00;98612.34;4413961;32;20039;-73
2022/06/19 05:00:49;;;;;;;2.03;1.92;;;;;;;20.73;100.00;98612.84;4414892;32;20243;-69
2022/06/19 05:03:16;;;;;;;4.75;2.25;;;;;;;20.65;100.00;98598.87;4414583;32;20042;-69
2022/06/19 05:05:43;;;;;;;4.20;2.17;;;;;;;20.80;100.00;98610.41;4415421;32;20042;-69
2022/06/19 05:08:09;;;;;;;5.30;2.00;;;;;;;20.66;100.00;98570.41;4414741;32;20828;-72
2022/06/19 05:10:35;;;;;;;6.05;2.17;;;;;;;21.00;100.00;98609.69;4411169;32;20431;-69
2022/06/19 05:13:02;;;;;;;9.43;2.55;;;;;;;21.02;100.00;98614.81;4409757;32;20057;-68
2022/06/19 05:15:28;;;;;;;4.72;1.90;;;;;;;21.05;100.00;98612.22;4412876;32;20430;-68
2022/06/19 05:17:54;;;;;;;2.30;1.87;;;;;;;21.11;100.00;98603.81;4400741;32;20098;-69
2022/06/19 05:20:20;;;;;;;3.95;2.53;;;;;;;21.13;100.00;98612.53;4409532;32;20047;-71
2022/06/19 05:22:46;;;;;;;2.72;2.42;;;;;;;21.24;100.00;98613.75;4414527;32;20790;-70
2022/06/19 05:25:11;;;;;;;4.22;2.05;;;;;;;21.41;100.00;98608.16;4414740;32;20147;-68
2022/06/19 05:27:40;;;;;;;3.15;1.90;;;;;;;21.18;100.00;98574.00;4413299;32;20530;-69
2022/06/19 05:30:10;;;;;;;6.25;2.70;;;;;;;21.46;100.00;98609.09;4414534;32;20083;-68
2022/06/19 05:32:36;;;;;;;8.23;2.03;;;;;;;21.55;100.00;98607.13;4412677;32;20034;-70
2022/06/19 05:35:02;;;;;;;5.30;2.37;;;;;;;21.54;100.00;98589.09;4413374;32;20141;-70
2022/06/19 05:37:28;;;;;;;2.53;1.77;;;;;;;21.55;100.00;98563.31;4413706;32;20384;-69
2022/06/19 05:39:54;;;;;;;3.97;2.10;;;;;;;21.66;100.00;98542.59;4413588;32;20047;-69
2022/06/19 05:42:20;;;;;;;5.95;1.95;;;;;;;21.62;100.00;98541.69;4413974;32;20056;-69
2022/06/19 05:44:46;;;;;;;6.07;2.80;;;;;;;21.61;100.00;98542.81;4412196;32;20043;-71
2022/06/19 05:47:12;;;;;;;3.95;1.80;;;;;;;21.81;100.00;98554.06;4414666;32;20062;-68
2022/06/19 05:49:38;;;;;;;1.75;1.75;;;;;;;22.18;100.00;98578.88;4415685;32;20097;-69
2022/06/19 05:52:16;;;;;;;5.75;1.60;;;;;;;22.20;100.00;98587.59;4415490;32;20068;-69
2022/06/19 05:54:44;;;;;;;5.47;1.80;;;;;;;22.33;100.00;98588.44;4413900;32;20055;-69
2022/06/19 05:57:10;;;;;;;6.22;2.47;;;;;;;22.43;100.00;98591.56;4415009;32;20069;-69
2022/06/19 05:59:35;;;;;;;3.42;2.05;;;;;;;22.27;100.00;98554.91;4416356;32;20050;-69
2022/06/19 06:02:02;;;;;;;5.43;2.58;;;;;;;22.57;100.00;98571.25;4417605;32;20050;-68
2022/06/19 06:04:28;;;;;;;10.65;2.55;;;;;;;22.38;100.00;98528.69;4403223;32;20140;-70
2022/06/19 06:06:54;;;;;;;2.40;1.98;;;;;;;22.63;100.00;98567.13;4417423;32;20038;-68
2022/06/19 06:09:20;;;;;;;3.80;2.22;;;;;;;22.70;100.00;98583.03;4417963;32;20035;-69
2022/06/19 06:11:46;;;;;;;2.30;2.20;;;;;;;22.74;100.00;98584.75;4416943;32;20091;-69
2022/06/19 06:14:12;;;;;;;8.32;2.00;;;;;;;22.73;100.00;98582.34;4417821;32;20046;-69
2022/06/19 06:16:38;;;;;;;8.23;1.90;;;;;;;22.92;100.00;98598.25;4416763;32;20141;-72
2022/06/19 06:19:04;;;;;;;7.78;2.33;;;;;;;22.97;100.00;98592.53;4417159;32;20088;-68
2022/06/19 06:21:30;;;;;;;4.97;2.30;;;;;;;23.06;100.00;98585.00;4416484;32;20066;-68
2022/06/19 06:23:56;;;;;;;9.48;2.08;;;;;;;23.10;100.00;98580.44;4417429;32;20122;-68
2022/06/19 06:26:29;;;;;;;4.72;1.90;;;;;;;23.14;100.00;98575.87;4417363;32;20047;-68
2022/06/19 06:28:57;;;;;;;9.10;1.90;;;;;;;23.19;100.00;98570.13;4400700;32;20040;-71
2022/06/19 06:31:24;;;;;;;4.15;1.87;;;;;;;23.24;100.00;98579.28;4402816;32;20059;-67
2022/06/19 06:33:49;;;;;;;1.95;1.85;;;;;;;23.36;100.00;98573.78;4405634;32;20069;-69
2022/06/19 06:36:17;;;;;;;4.47;2.00;;;;;;;23.13;100.00;98544.03;4417553;32;20039;-68
2022/06/19 06:38:44;;;;;;;3.33;2.22;;;;;;;23.38;100.00;98580.53;4415300;32;20416;-71
2022/06/19 06:41:14;;;;;;;5.18;2.05;;;;;;;23.46;100.00;98564.28;4416517;32;20056;-67
2022/06/19 06:43:45;;;;;;;5.25;2.30;;;;;;;23.27;100.00;98502.50;4417516;32;20038;-68
2022/06/19 06:46:21;;;;;;;7.22;1.83;;;;;;;23.72;100.00;98566.59;4417194;32;20039;-68
2022/06/19 06:48:49;;;;;;;2.30;2.05;;;;;;;23.85;100.00;98565.41;4414903;32;20121;-69
2022/06/19 06:51:18;;;;;;;5.55;1.75;;;;;;;23.89;100.00;98563.59;4417598;32;20436;-68
2022/06/19 06:53:44;;;;;;;3.67;2.15;;;;;;;23.94;100.00;98560.56;4417381;32;20049;-68
2022/06/19 06:56:11;;;;;;;4.05;1.95;;;;;;;23.97;100.00;98555.53;4417135;32;20046;-69
2022/06/19 06:58:39;;;;;;;8.45;2.47;;;;;;;23.88;100.00;98534.47;4415724;32;21783;-70
2022/06/19 07:01:09;;;;;;;2.47;1.90;;;;;;;24.20;100.00;98564.81;4412854;32;20043;-68
2022/06/19 07:03:35;;;;;;;8.55;2.50;;;;;;;24.23;100.00;98555.06;4415544;32;20066;-68
2022/06/19 07:06:08;;;;;;;6.68;2.10;;;;;;;24.07;100.00;98533.81;4416277;32;20123;-69
2022/06/19 07:08:34;;;;;;;9.15;2.05;;;;;;;24.28;100.00;98533.59;4417425;32;20119;-73
2022/06/19 07:11:00;;;;;;;5.55;1.90;;;;;;;24.44;100.00;98524.53;4412901;32;20098;-73
2022/06/19 07:13:26;;;;;;;7.10;2.45;;;;;;;24.46;100.00;98538.78;4414655;32;20061;-72
2022/06/19 07:15:52;;;;;;;2.20;1.70;;;;;;;24.47;100.00;98543.09;4415091;32;20189;-73
2022/06/19 07:18:19;;;;;;;2.28;1.67;;;;;;;24.62;100.00;98547.06;4416025;32;20445;-72
2022/06/19 07:20:46;;;;;;;5.87;1.77;;;;;;;24.47;100.00;98504.56;4416460;32;20410;-73
2022/06/19 07:23:11;;;;;;;7.10;2.08;;;;;;;24.86;100.00;98546.06;4414951;32;20387;-74
2022/06/19 07:25:37;;;;;;;5.25;1.90;;;;;;;24.92;100.00;98550.16;4415354;32;20139;-74
2022/06/19 07:28:04;;;;;;;3.30;2.37;;;;;;;25.06;100.00;98548.88;4414902;32;20046;-72
2022/06/19 07:30:30;;;;;;;7.93;2.67;;;;;;;25.18;100.00;98559.78;4415495;32;20209;-72
2022/06/19 07:32:56;;;;;;;10.90;2.40;;;;;;;25.14;100.00;98550.63;4416202;32;20042;-73
2022/06/19 07:35:24;;;;;;;3.92;2.22;;;;;;;25.29;100.00;98543.50;4413499;32;20073;-72
2022/06/19 07:37:53;;;;;;;7.15;2.00;;;;;;;25.01;100.00;98506.66;4414862;32;20101;-72
2022/06/19 07:40:21;;;;;;;2.20;1.70;;;;;;;25.26;100.00;98525.72;4415709;32;20569;-71
2022/06/19 07:42:47;;;;;;;8.43;2.35;;;;;;;24.90;100.00;98480.06;4401248;32;20055;-71
2022/06/19 07:45:15;;;;;;;7.22;1.80;;;;;;;25.43;100.00;98520.97;4414562;32;20042;-73
2022/06/19 07:50:26;;;;;;;7.93;2.55;;;;;;;25.63;100.00;98528.09;4414747;32;20038;-71
2022/06/19 07:52:58;;;;;;;4.78;2.05;;;;;;;25.64;100.00;98534.41;4397599;32;20042;-73
2022/06/19 07:55:27;;;;;;;7.12;2.08;;;;;;;25.62;100.00;98532.00;4414502;32;20467;-72
2022/06/19 07:57:54;;;;;;;2.83;2.35;;;;;;;25.61;100.00;98543.41;4414180;32;20086;-71
2022/06/19 08:00:30;;;;;;;7.40;2.17;;;;;;;25.66;100.00;98532.91;4416097;32;20079;-70
2022/06/19 08:02:57;;;;;;;6.75;2.50;;;;;;;25.86;100.00;98541.16;4399843;32;20387;-72
2022/06/19 08:05:25;;;;;;;2.35;1.75;;;;;;;25.88;100.00;98536.88;4415664;32;20115;-71
2022/06/19 08:07:52;;;;;;;3.00;2.40;;;;;;;25.87;100.00;98542.75;4414416;32;20355;-72
2022/06/19 08:10:32;;;;;;;12.65;1.92;;;;;;;25.82;100.00;98532.03;4413318;32;20046;-71
2022/06/19 08:12:59;;;;;;;8.73;2.75;;;;;;;26.00;100.00;98535.94;4410933;32;20081;-72
2022/06/19 08:15:25;;;;;;;4.53;2.08;;;;;;;26.09;100.00;98533.75;4414439;32;20055;-74
2022/06/19 08:17:52;;;;;;;11.95;2.70;;;;;;;26.03;100.00;98540.72;4414222;32;20050;-72
2022/06/19 08:20:19;;;;;;;9.07;2.70;;;;;;;25.90;100.00;98511.69;4413358;32;20098;-71
2022/06/19 08:22:45;;;;;;;4.12;1.77;;;;;;;25.82;100.00;98490.66;4412000;32;20110;-71
2022/06/19 08:25:14;;;;;;;7.20;2.92;;;;;;;26.11;100.00;98544.44;4411563;32;20057;-70
2022/06/19 08:27:42;;;;;;;6.18;2.00;;;;;;;26.27;100.00;98534.06;4399440;32;20100;-70
2022/06/19 08:30:13;;;;;;;6.57;2.08;;;;;;;26.42;100.00;98557.22;4415510;32;20137;-69
2022/06/19 08:32:39;;;;;;;3.90;2.08;;;;;;;26.46;100.00;98552.53;4415596;32;20389;-73
2022/06/19 08:35:05;;;;;;;17.40;2.87;;;;;;;26.59;100.00;98538.56;4414095;32;20060;-68
2022/06/19 08:37:33;;;;;;;3.22;1.92;;;;;;;26.68;100.00;98541.91;4415078;32;20082;-68
2022/06/19 08:40:00;;;;;;;5.55;2.10;;;;;;;26.57;100.00;98549.19;4416010;32;20060;-69
2022/06/19 08:42:39;;;;;;;4.55;1.92;;;;;;;26.52;100.00;98543.94;4414986;32;20042;-67
2022/06/19 08:45:28;;;;;;;7.60;1.80;;;;;;;26.83;100.00;98546.47;4413174;32;20052;-69
2022/06/19 08:48:06;;;;;;;2.20;1.58;;;;;;;26.62;100.00;98537.84;4414308;32;20077;-68
2022/06/19 08:50:33;;;;;;;7.80;2.33;;;;;;;26.92;100.00;98534.41;4410794;32;20089;-71
2022/06/19 08:53:33;;;;;;;6.65;2.00;;;;;;;26.81;100.00;98517.66;4415164;32;20410;-68
2022/06/19 08:56:12;;;;;;;6.62;2.37;;;;;;;26.93;100.00;98533.22;4411192;32;20380;-71
2022/06/19 08:58:45;;;;;;;6.72;1.90;;;;;;;26.65;100.00;98498.47;4415004;32;20062;-69
2022/06/19 09:01:22;;;;;;;7.30;1.77;;;;;;;26.82;100.00;98514.53;4415107;32;20375;-69
2022/06/19 09:07:06;;;;;;;4.68;2.30;;;;;;;27.38;100.00;98528.78;4400589;32;20043;-68
2022/06/19 09:09:55;;;;;;;2.85;1.70;;;;;;;27.54;100.00;98529.37;4385999;32;20209;-67
2022/06/19 09:12:42;;;;;;;2.15;1.62;;;;;;;27.50;100.00;98522.97;4403909;32;20080;-69
2022/06/19 09:15:24;;;;;;;5.15;1.70;;;;;;;27.46;100.00;98533.22;4413614;32;20039;-69
2022/06/19 09:18:01;;;;;;;2.35;1.83;;;;;;;27.56;100.00;98528.19;4414046;32;20076;-71
2022/06/19 09:20:37;;;;;;;7.03;2.05;;;;;;;27.51;100.00;98510.75;4413695;32;20099;-68
2022/06/19 09:23:31;;;;;;;17.37;3.42;;;;;;;27.70;100.00;98511.78;4414768;32;20038;-68
2022/06/19 09:26:14;;;;;;;4.57;1.62;;;;;;;27.83;100.00;98507.56;4414236;32;20697;-69
2022/06/19 09:28:55;;;;;;;2.42;1.90;;;;;;;28.00;100.00;98509.00;4414825;32;20393;-68
2022/06/19 09:31:43;;;;;;;4.62;1.80;;;;;;;28.10;100.00;98507.50;4413313;32;20107;-69
2022/06/19 09:34:43;;;;;;;10.15;2.15;;;;;;;28.19;100.00;98494.13;4415808;32;20060;-67
2022/06/19 09:37:24;;;;;;;7.55;2.53;;;;;;;28.07;100.00;98502.72;4409929;32;20135;-67
2022/06/19 09:39:56;;;;;;;7.95;2.05;;;;;;;27.85;100.00;98463.72;4416379;32;20487;-69
2022/06/19 09:42:29;;;;;;;2.10;1.70;;;;;;;27.80;100.00;98472.38;4415804;32;20070;-69
2022/06/19 09:45:00;;;;;;;7.18;1.42;;;;;;;28.03;100.00;98508.19;4417404;32;20042;-68
2022/06/19 09:47:44;;;;;;;7.78;1.77;;;;;;;28.14;100.00;98480.66;4416803;32;20429;-69
2022/06/19 09:50:21;;;;;;;3.35;1.62;;;;;;;28.26;100.00;98474.84;4416614;32;20050;-69
2022/06/19 09:52:49;;;;;;;2.72;1.65;;;;;;;28.26;96.69;98477.59;4418197;32;20045;-68
2022/06/19 09:55:26;;;;;;;2.75;1.80;;;;;;;28.25;98.09;98470.47;4418025;32;20043;-69
2022/06/19 09:58:04;;;;;;;3.97;2.20;;;;;;;28.52;97.34;98478.59;4417619;32;20162;-68
2022/06/19 10:00:34;;;;;;;8.65;1.80;;;;;;;28.60;97.47;98471.19;4415465;32;20048;-69
2022/06/19 10:03:14;;;;;;;6.10;2.30;;;;;;;28.69;97.39;98466.09;4416966;32;20042;-71
2022/06/19 10:05:51;;;;;;;3.30;1.70;;;;;;;28.80;96.83;98471.72;4414991;32;20277;-69
2022/06/19 10:08:26;;;;;;;7.03;2.10;;;;;;;28.54;92.56;98476.25;4415751;32;20100;-68
2022/06/19 10:11:15;;;;;;;5.47;1.52;;;;;;;28.71;92.78;98485.09;4414678;32;20038;-71
2022/06/19 10:14:00;;;;;;;6.37;1.50;;;;;;;28.66;91.23;98444.72;4416070;32;20085;-69
2022/06/19 10:16:45;;;;;;;4.87;1.87;;;;;;;28.82;90.08;98441.66;4416096;32;20046;-71
2022/06/19 10:19:17;;;;;;;4.25;1.98;;;;;;;28.97;89.70;98476.56;4417083;32;20049;-70
2022/06/19 10:24:46;;;;;;;9.05;2.00;;;;;;;29.09;87.75;98466.34;4416903;32;20006;-68
2022/06/19 10:27:45;;;;;;;3.65;1.98;;;;;;;28.87;87.96;98421.09;4403595;32;20055;-70
2022/06/19 10:30:16;;;;;;;6.43;1.90;;;;;;;28.67;82.84;98418.59;4414130;32;20085;-68
2022/06/19 10:33:02;;;;;;;4.60;1.67;;;;;;;28.92;81.31;98440.13;4417177;32;20042;-69
2022/06/19 10:35:37;;;;;;;8.23;2.10;;;;;;;29.08;84.36;98437.03;4414987;32;20430;-69
2022/06/19 10:38:09;;;;;;;7.25;1.90;;;;;;;29.15;84.05;98414.88;4417230;32;20042;-68
2022/06/19 10:40:57;;;;;;;4.10;1.77;;;;;;;29.68;82.62;98436.50;4415747;32;20452;-70
2022/06/19 10:43:38;;;;;;;8.27;1.75;;;;;;;29.54;83.88;98436.47;4415405;32;20073;-68
2022/06/19 10:46:08;;;;;;;3.78;1.90;;;;;;;29.61;80.62;98430.91;4415864;32;20089;-69
2022/06/19 10:49:02;;;;;;;10.63;1.80;;;;;;;29.42;81.85;98434.03;4416244;32;20042;-72
2022/06/19 10:52:04;;;;;;;6.47;1.60;;;;;;;29.64;80.05;98432.91;4414866;32;20122;-68
2022/06/19 10:54:55;;;;;;;9.43;2.10;;;;;;;29.51;76.29;98426.16;4415301;32;20053;-69
2022/06/19 10:57:46;;;;;;;6.85;2.00;;;;;;;29.63;76.91;98405.56;4414638;32;20148;-68
2022/06/19 11:00:12;;;;;;;;;;;;;;;29.56;73.56;98400.81;4416133;32;20127;-68
2022/06/19 11:05:48;;;;;;;5.07;2.00;;;;;;;29.53;71.19;98379.41;4415360;32;20720;-69
2022/06/19 11:08:15;;;;;;;14.90;2.33;;;;;;;29.99;70.37;98428.66;4416665;32;20128;-69
2022/06/19 11:10:44;;;;;;;4.35;2.20;;;;;;;30.54;63.53;98423.91;4414959;32;20043;-69
2022/06/19 11:13:12;;;;;;;8.45;2.72;;;;;;;30.34;68.07;98427.06;4415505;32;20094;-69
2022/06/19 11:15:41;;;;;;;11.15;2.17;;;;;;;30.16;66.91;98423.53;4414050;32;20050;-68
2022/06/19 11:18:14;;;;;;;4.47;1.85;;;;;;;30.32;68.82;98423.91;4416481;32;20402;-69
2022/06/19 11:20:53;;;;;;;9.63;1.90;;;;;;;30.39;62.88;98401.69;4416813;32;20116;-69
2022/06/19 11:23:25;;;;;;;11.85;1.85;;;;;;;30.55;63.12;98428.28;4417179;32;20239;-68
2022/06/19 11:26:35;;;;;;;18.25;2.33;;;;;;;30.54;64.88;98418.34;4415903;32;20378;-69
2022/06/19 11:29:04;;;;;;;7.03;2.53;;;;;;;30.82;62.00;98400.81;4353036;32;20449;-67
2022/06/19 11:31:33;;;;;;;9.88;2.05;;;;;;;31.14;59.26;98422.97;4339797;32;20083;-69
2022/06/19 11:34:43;;;;;;;4.93;1.80;;;;;;;30.88;59.65;98415.13;4353967;32;20051;-69
2022/06/19 11:36:50;;;;;;;7.65;2.12;;;;;;;30.50;65.56;98406.47;4353561;32;20072;-69
2022/06/19 11:39:46;;;;;;;5.05;2.03;;;;;;;30.98;68.98;98399.63;4354167;32;20079;-69
2022/06/19 11:42:36;;;;;;;3.92;2.00;;;;;;;30.67;68.35;98396.50;4342476;32;20150;-68
2022/06/19 11:45:19;;;;;;;14.45;2.40;;;;;;;30.52;71.03;98379.06;4352586;32;20047;-69
2022/06/19 11:47:55;;;;;;;12.73;3.08;;;;;;;30.99;66.54;98393.66;4353056;32;20058;-69
2022/06/19 11:50:33;;;;;;;7.80;2.22;;;;;;;30.99;67.61;98402.00;4354098;32;20158;-68
2022/06/19 11:53:11;;;;;;;8.18;2.12;;;;;;;30.66;67.10;98359.59;4347826;32;20391;-67
2022/06/19 11:55:52;;;;;;;10.30;2.05;;;;;;;30.74;66.49;98369.50;4340294;33;20420;-68